Time;durP1;ratioP1;P1;durP2;ratioP2;P2;SDS_P1;SDS_P2;PMS_P1;PMS_P2;Temp;Humidity;BMP_temperature;BMP_pressure;BME280_temperature;BME280_humidity;BME280_pressure;Samples;Min_cycle;Max_cycle;Signal;HPM_P1;HPM_P2
2022/02/19 00:00:50;;;;;;;5.80;1.35;;;5.90;99.90;;;;;;6218423;23;20148;-63
2022/02/19 00:03:15;;;;;;;3.60;1.00;;;6.00;99.90;;;;;;6218328;23;20172;-65
2022/02/19 00:05:41;;;;;;;3.80;0.95;;;6.00;99.90;;;;;;6219232;23;20329;-64
2022/02/19 00:08:08;;;;;;;3.33;0.73;;;6.00;99.90;;;;;;6219749;23;20152;-64
2022/02/19 00:10:34;;;;;;;7.47;1.23;;;6.00;99.90;;;;;;6220537;23;20145;-67
2022/02/19 00:13:00;;;;;;;4.90;0.90;;;6.10;99.90;;;;;;6220814;23;20245;-63
2022/02/19 00:15:25;;;;;;;3.83;0.93;;;6.30;99.90;;;;;;6222836;23;20149;-64
2022/02/19 00:17:51;;;;;;;4.82;0.90;;;6.30;99.90;;;;;;6221869;23;20223;-63
2022/02/19 00:20:16;;;;;;;4.80;1.05;;;6.20;99.90;;;;;;6220532;23;20413;-63
2022/02/19 00:22:42;;;;;;;7.20;1.23;;;6.10;99.90;;;;;;6218265;23;20145;-63
2022/02/19 00:25:09;;;;;;;3.53;1.33;;;5.90;99.90;;;;;;6216747;23;20187;-70
2022/02/19 00:27:35;;;;;;;4.47;1.20;;;5.80;99.90;;;;;;6217386;23;20215;-64
2022/02/19 00:30:00;;;;;;;4.75;1.23;;;5.60;99.90;;;;;;6216999;23;20560;-64
2022/02/19 00:32:26;;;;;;;3.35;1.48;;;5.50;99.90;;;;;;6216894;23;20526;-64
2022/02/19 00:34:51;;;;;;;4.10;1.20;;;5.40;99.90;;;;;;6216239;23;20556;-63
2022/02/19 00:37:17;;;;;;;3.80;0.88;;;5.30;99.90;;;;;;6216309;23;20160;-63
2022/02/19 00:39:43;;;;;;;2.67;0.82;;;5.20;99.90;;;;;;6216682;23;20141;-63
2022/02/19 00:42:08;;;;;;;3.22;1.00;;;5.10;99.90;;;;;;6216266;23;20328;-64
2022/02/19 00:44:34;;;;;;;6.07;1.30;;;5.00;99.90;;;;;;6216256;23;20143;-64
2022/02/19 00:47:00;;;;;;;3.40;1.10;;;5.00;99.90;;;;;;6216898;23;20181;-68
2022/02/19 00:49:26;;;;;;;3.80;0.90;;;4.90;99.90;;;;;;6216319;23;20160;-64
2022/02/19 00:51:51;;;;;;;6.45;1.17;;;4.90;99.90;;;;;;6216486;23;20155;-63
2022/02/19 00:54:17;;;;;;;2.70;1.30;;;4.90;99.90;;;;;;6216915;23;20140;-64
2022/02/19 00:56:42;;;;;;;5.50;1.48;;;5.00;99.90;;;;;;6216390;23;20219;-63
2022/02/19 00:59:08;;;;;;;5.50;1.35;;;4.90;99.90;;;;;;6216924;23;20137;-63
2022/02/19 01:01:33;;;;;;;5.40;1.13;;;5.00;99.90;;;;;;6216684;23;20148;-63
2022/02/19 01:03:59;;;;;;;2.58;0.60;;;5.00;99.90;;;;;;6216240;23;20210;-64
2022/02/19 01:06:24;;;;;;;7.05;1.05;;;5.10;99.90;;;;;;6216404;23;20448;-69
2022/02/19 01:08:50;;;;;;;4.93;1.20;;;5.20;99.90;;;;;;6216286;23;20556;-64
2022/02/19 01:11:16;;;;;;;4.80;1.27;;;5.40;99.90;;;;;;6216165;23;20507;-64
2022/02/19 01:13:42;;;;;;;6.97;1.42;;;5.50;99.90;;;;;;6215948;23;20149;-64
2022/02/19 01:16:07;;;;;;;2.58;1.10;;;5.70;99.90;;;;;;6216077;23;20608;-63
2022/02/19 01:18:33;;;;;;;4.95;1.30;;;5.80;99.90;;;;;;6216348;23;20191;-64
2022/02/19 01:20:58;;;;;;;4.95;1.00;;;5.90;99.90;;;;;;6215847;23;20178;-63
2022/02/19 01:23:24;;;;;;;4.32;1.40;;;5.90;99.90;;;;;;6215863;23;20148;-64
2022/02/19 01:25:49;;;;;;;6.00;1.25;;;6.00;99.90;;;;;;6215873;23;20145;-67
2022/02/19 01:28:15;;;;;;;2.65;1.25;;;6.00;99.90;;;;;;6215953;23;20153;-64
2022/02/19 01:30:41;;;;;;;5.65;1.10;;;6.10;99.90;;;;;;6215600;23;20422;-64
2022/02/19 01:33:06;;;;;;;2.00;0.80;;;6.10;99.90;;;;;;6216293;23;20199;-63
2022/02/19 01:35:32;;;;;;;3.38;0.90;;;6.10;99.90;;;;;;6217980;23;20439;-63
2022/02/19 01:37:57;;;;;;;5.30;1.00;;;6.10;99.90;;;;;;6217699;23;20137;-64
2022/02/19 01:40:23;;;;;;;6.38;1.42;;;6.00;99.90;;;;;;6217754;23;20224;-63
2022/02/19 01:42:48;;;;;;;5.53;1.00;;;6.00;99.90;;;;;;6217752;23;20438;-63
2022/02/19 01:45:15;;;;;;;3.47;0.85;;;6.00;99.90;;;;;;6217798;23;20137;-64
2022/02/19 01:47:41;;;;;;;5.60;1.00;;;5.90;99.90;;;;;;6216591;23;20145;-63
2022/02/19 01:50:08;;;;;;;1.10;0.73;;;5.90;99.90;;;;;;6218011;23;20149;-63
2022/02/19 01:52:34;;;;;;;5.65;1.10;;;5.90;99.90;;;;;;6217651;23;20149;-63
2022/02/19 01:55:00;;;;;;;3.05;0.98;;;5.80;99.90;;;;;;6218026;23;20492;-63
2022/02/19 01:57:26;;;;;;;2.75;0.95;;;5.80;99.90;;;;;;6217416;23;20164;-63
2022/02/19 01:59:51;;;;;;;4.57;1.20;;;5.80;99.90;;;;;;6217540;23;20137;-63
2022/02/19 02:02:17;;;;;;;4.95;1.00;;;5.80;99.90;;;;;;6217565;23;20148;-63
2022/02/19 02:04:43;;;;;;;3.60;1.00;;;5.80;99.90;;;;;;6218339;23;20141;-62
2022/02/19 02:07:09;;;;;;;5.55;1.13;;;5.70;99.90;;;;;;6219758;23;20531;-62
2022/02/19 02:09:35;;;;;;;4.55;1.15;;;5.70;99.90;;;;;;6217908;23;20168;-63
2022/02/19 02:12:02;;;;;;;4.15;0.98;;;5.60;99.90;;;;;;6219069;23;20149;-63
2022/02/19 02:14:28;;;;;;;4.03;1.00;;;5.40;99.90;;;;;;6219539;23;20211;-63
2022/02/19 02:16:53;;;;;;;2.45;0.68;;;5.30;99.90;;;;;;6219000;23;20164;-63
2022/02/19 02:19:19;;;;;;;5.28;1.10;;;5.20;99.90;;;;;;6218774;23;20569;-62
2022/02/19 02:21:44;;;;;;;4.90;0.90;;;5.10;99.90;;;;;;6219063;23;20144;-62
2022/02/19 02:24:10;;;;;;;3.10;1.20;;;5.00;99.90;;;;;;6218469;23;20336;-63
2022/02/19 02:26:37;;;;;;;0.90;0.70;;;4.90;99.90;;;;;;6218393;23;20159;-63
2022/02/19 02:29:03;;;;;;;1.98;0.70;;;4.80;99.90;;;;;;6217138;23;20215;-62
2022/02/19 02:31:28;;;;;;;3.47;0.68;;;4.80;99.90;;;;;;6218027;23;20498;-64
2022/02/19 02:33:54;;;;;;;2.72;0.60;;;4.60;99.90;;;;;;6218221;23;20147;-62
2022/02/19 02:36:20;;;;;;;3.92;1.17;;;4.60;99.90;;;;;;6218313;23;20175;-63
2022/02/19 02:38:46;;;;;;;2.70;0.90;;;4.50;99.90;;;;;;6218007;23;20141;-66
2022/02/19 02:41:12;;;;;;;2.47;0.80;;;4.40;99.90;;;;;;6216677;23;20141;-66
2022/02/19 02:43:38;;;;;;;2.25;0.80;;;4.40;99.90;;;;;;6217060;23;20141;-63
2022/02/19 02:46:03;;;;;;;4.80;0.90;;;4.50;99.90;;;;;;6217864;23;20149;-62
2022/02/19 02:48:29;;;;;;;1.58;0.70;;;4.40;99.90;;;;;;6216441;23;20159;-62
2022/02/19 02:50:56;;;;;;;1.38;0.68;;;4.40;99.90;;;;;;6217523;23;20145;-62
2022/02/19 02:53:24;;;;;;;3.67;0.68;;;4.30;99.90;;;;;;6217721;23;20149;-63
2022/02/19 02:55:50;;;;;;;2.45;0.60;;;4.40;99.90;;;;;;6217190;23;20193;-62
2022/02/19 02:58:15;;;;;;;2.80;0.80;;;4.40;99.90;;;;;;6217337;23;20149;-62
2022/02/19 03:00:41;;;;;;;2.33;0.68;;;4.30;99.90;;;;;;6217951;23;20138;-63
2022/02/19 03:03:06;;;;;;;1.25;0.50;;;4.30;99.90;;;;;;6218332;23;20445;-64
2022/02/19 03:05:32;;;;;;;1.40;0.65;;;4.50;99.90;;;;;;6217889;23;20199;-63
2022/02/19 03:07:57;;;;;;;0.60;0.47;;;4.50;99.90;;;;;;6217484;23;20141;-63
2022/02/19 03:10:23;;;;;;;4.40;0.60;;;4.60;99.90;;;;;;6217459;23;20141;-63
2022/02/19 03:12:48;;;;;;;1.67;0.57;;;4.70;99.90;;;;;;6217702;23;20148;-64
2022/02/19 03:15:18;;;;;;;4.47;0.60;;;4.80;99.90;;;;;;6217582;23;20145;-64
2022/02/19 03:17:45;;;;;;;1.92;0.63;;;4.80;99.90;;;;;;6217152;23;20169;-63
2022/02/19 03:20:13;;;;;;;3.17;0.73;;;4.80;99.90;;;;;;6216699;23;20177;-63
2022/02/19 03:22:39;;;;;;;2.67;0.85;;;4.70;99.90;;;;;;6217058;23;20168;-66
2022/02/19 03:25:05;;;;;;;2.08;0.60;;;4.70;99.90;;;;;;6217218;23;20163;-65
2022/02/19 03:27:30;;;;;;;1.83;0.70;;;4.60;99.90;;;;;;6217843;23;20429;-64
2022/02/19 03:29:56;;;;;;;3.08;0.77;;;4.30;99.90;;;;;;6218450;23;20149;-63
2022/02/19 03:32:21;;;;;;;2.92;0.70;;;4.00;99.90;;;;;;6218996;23;20172;-63
2022/02/19 03:34:47;;;;;;;2.10;0.68;;;3.80;99.90;;;;;;6217165;23;20141;-66
2022/02/19 03:37:12;;;;;;;3.58;0.80;;;3.70;99.90;;;;;;6216911;23;20161;-66
2022/02/19 03:39:38;;;;;;;3.55;0.95;;;3.70;99.90;;;;;;6217079;23;20140;-68
2022/02/19 03:42:04;;;;;;;5.78;1.10;;;3.80;99.90;;;;;;6217132;23;20422;-67
2022/02/19 03:44:29;;;;;;;6.25;1.08;;;3.90;99.90;;;;;;6216927;23;20231;-65
2022/02/19 03:46:55;;;;;;;3.53;0.73;;;4.00;99.90;;;;;;6216913;23;20205;-66
2022/02/19 03:49:20;;;;;;;3.55;0.90;;;4.20;99.90;;;;;;6217149;23;20447;-66
2022/02/19 03:51:46;;;;;;;4.63;0.90;;;4.30;99.90;;;;;;6218154;23;20141;-65
2022/02/19 03:54:11;;;;;;;5.53;1.30;;;4.30;99.90;;;;;;6217162;23;20558;-65
2022/02/19 03:56:38;;;;;;;5.25;1.20;;;4.40;99.90;;;;;;6217673;23;20161;-65
2022/02/19 03:59:04;;;;;;;7.15;1.35;;;4.40;99.90;;;;;;6218174;23;20156;-64
2022/02/19 04:01:29;;;;;;;7.78;1.80;;;4.30;99.90;;;;;;6216502;23;20145;-64
2022/02/19 04:03:55;;;;;;;5.55;1.58;;;4.30;99.90;;;;;;6216605;23;20140;-63
2022/02/19 04:06:20;;;;;;;7.50;1.42;;;4.20;99.90;;;;;;6216977;23;20203;-63
2022/02/19 04:08:46;;;;;;;5.55;1.63;;;4.20;99.90;;;;;;6216560;23;20167;-64
2022/02/19 04:11:12;;;;;;;17.17;1.90;;;4.20;99.90;;;;;;6216430;23;20140;-64
2022/02/19 04:13:39;;;;;;;5.57;1.73;;;4.20;99.90;;;;;;6216663;23;20144;-68
2022/02/19 04:16:04;;;;;;;9.85;1.50;;;4.30;99.90;;;;;;6216457;23;20172;-66
2022/02/19 04:18:30;;;;;;;10.25;2.15;;;4.40;99.90;;;;;;6216337;23;20176;-64
2022/02/19 04:20:55;;;;;;;11.63;2.22;;;4.40;99.90;;;;;;6216628;23;20159;-65
2022/02/19 04:23:21;;;;;;;6.88;1.35;;;4.50;99.90;;;;;;6216165;23;20206;-66
2022/02/19 04:25:46;;;;;;;7.22;1.65;;;4.50;99.90;;;;;;6216542;23;20148;-64
2022/02/19 04:28:12;;;;;;;6.05;1.15;;;4.60;99.90;;;;;;6216188;23;20145;-64
2022/02/19 04:30:38;;;;;;;3.22;1.20;;;4.60;99.90;;;;;;6216039;23;20145;-65
2022/02/19 04:33:03;;;;;;;5.25;1.13;;;4.60;99.90;;;;;;6216552;23;20145;-65
2022/02/19 04:35:30;;;;;;;7.95;1.35;;;4.60;99.90;;;;;;6216150;23;20144;-65
2022/02/19 04:37:57;;;;;;;5.30;1.42;;;4.50;99.90;;;;;;6216366;23;20168;-65
2022/02/19 04:40:23;;;;;;;5.22;1.40;;;4.50;99.90;;;;;;6216095;23;20537;-65
2022/02/19 04:42:49;;;;;;;5.85;1.85;;;4.40;99.90;;;;;;6215980;23;20176;-65
2022/02/19 04:45:15;;;;;;;5.10;1.33;;;4.40;99.90;;;;;;6216580;23;20141;-64
2022/02/19 04:47:42;;;;;;;4.68;0.57;;;4.50;99.90;;;;;;6216100;23;20239;-63
2022/02/19 04:50:08;;;;;;;6.05;1.25;;;4.50;99.90;;;;;;6216297;23;20227;-65
2022/02/19 04:52:34;;;;;;;4.53;0.93;;;4.60;99.90;;;;;;6216352;23;20157;-66
2022/02/19 04:54:59;;;;;;;8.30;1.45;;;4.60;99.90;;;;;;6216084;23;20203;-65
2022/02/19 04:57:25;;;;;;;3.97;0.47;;;4.60;99.90;;;;;;6216351;23;20172;-66
2022/02/19 04:59:51;;;;;;;4.43;1.00;;;4.70;99.90;;;;;;6216327;23;20412;-65
2022/02/19 05:02:17;;;;;;;4.00;0.85;;;4.80;99.90;;;;;;6216332;23;20141;-65
2022/02/19 05:04:43;;;;;;;2.55;1.08;;;4.80;99.90;;;;;;6216936;23;20545;-65
2022/02/19 05:07:08;;;;;;;5.60;0.80;;;4.80;99.90;;;;;;6216730;23;20145;-65
2022/02/19 05:09:34;;;;;;;7.30;1.33;;;4.80;99.90;;;;;;6218487;23;20141;-65
2022/02/19 05:12:00;;;;;;;5.28;0.93;;;4.90;99.90;;;;;;6218969;23;20149;-65
2022/02/19 05:14:25;;;;;;;6.50;1.20;;;4.90;99.90;;;;;;6218604;23;20156;-65
2022/02/19 05:16:51;;;;;;;8.90;1.38;;;4.90;99.90;;;;;;6218248;23;20168;-65
2022/02/19 05:19:16;;;;;;;8.00;1.65;;;4.90;99.90;;;;;;6218735;23;20452;-65
2022/02/19 05:21:42;;;;;;;8.40;1.80;;;4.90;99.90;;;;;;6218543;23;20545;-65
2022/02/19 05:24:07;;;;;;;7.88;1.52;;;4.90;99.90;;;;;;6218321;23;20145;-67
2022/02/19 05:26:33;;;;;;;5.15;1.60;;;4.80;99.90;;;;;;6218616;23;20419;-64
2022/02/19 05:28:58;;;;;;;4.95;1.63;;;4.80;99.90;;;;;;6218531;23;20145;-66
2022/02/19 05:31:24;;;;;;;8.38;1.50;;;4.80;99.90;;;;;;6218099;23;20161;-66
2022/02/19 05:33:49;;;;;;;4.75;1.73;;;4.80;99.90;;;;;;6218862;23;20429;-66
2022/02/19 05:36:15;;;;;;;10.18;1.23;;;4.80;99.90;;;;;;6218232;23;20175;-65
2022/02/19 05:38:40;;;;;;;5.80;1.63;;;4.80;99.90;;;;;;6217957;23;20145;-65
2022/02/19 05:41:06;;;;;;;5.18;1.10;;;4.70;99.90;;;;;;6218297;23;20141;-65
2022/02/19 05:43:32;;;;;;;4.40;1.20;;;4.70;99.90;;;;;;6218451;23;20203;-65
2022/02/19 05:45:57;;;;;;;2.78;0.70;;;4.70;99.90;;;;;;6218014;23;20145;-65
2022/02/19 05:48:23;;;;;;;5.63;1.10;;;4.70;99.90;;;;;;6218372;23;20145;-65
2022/02/19 05:50:50;;;;;;;4.97;0.93;;;4.60;99.90;;;;;;6219537;23;20168;-65
2022/02/19 05:53:15;;;;;;;5.10;1.15;;;4.60;99.90;;;;;;6227660;23;20249;-65
2022/02/19 05:55:41;;;;;;;2.95;0.90;;;4.50;99.90;;;;;;6221062;23;20498;-66
2022/02/19 05:58:07;;;;;;;5.25;1.10;;;4.50;99.90;;;;;;6218135;23;20140;-66
2022/02/19 06:00:33;;;;;;;3.45;1.02;;;4.40;99.90;;;;;;6217573;23;20141;-66
2022/02/19 06:02:58;;;;;;;6.72;1.30;;;4.40;99.90;;;;;;6217887;23;20148;-66
2022/02/19 06:05:23;;;;;;;3.40;0.80;;;4.40;99.90;;;;;;6217571;23;20448;-66
2022/02/19 06:07:49;;;;;;;4.88;1.02;;;4.40;99.90;;;;;;6217652;23;20155;-66
2022/02/19 06:10:15;;;;;;;6.25;1.20;;;4.40;99.90;;;;;;6217458;23;20141;-66
2022/02/19 06:12:41;;;;;;;5.57;1.10;;;4.40;99.90;;;;;;6219063;23;20519;-65
2022/02/19 06:15:07;;;;;;;3.80;1.25;;;4.40;99.90;;;;;;6219454;23;20149;-65
2022/02/19 06:17:33;;;;;;;6.43;1.02;;;4.40;99.90;;;;;;6218515;23;20172;-65
2022/02/19 06:19:58;;;;;;;3.10;0.90;;;4.30;99.90;;;;;;6218352;23;20152;-65
2022/02/19 06:22:24;;;;;;;4.38;1.08;;;4.40;99.90;;;;;;6220693;23;20460;-64
2022/02/19 06:24:49;;;;;;;5.10;1.02;;;4.40;99.90;;;;;;6218296;23;20397;-65
2022/02/19 06:27:15;;;;;;;5.72;1.35;;;4.30;99.90;;;;;;6218833;23;20219;-65
2022/02/19 06:29:40;;;;;;;8.27;1.48;;;4.20;99.90;;;;;;6217813;23;20561;-65
2022/02/19 06:32:06;;;;;;;5.93;1.20;;;4.00;99.90;;;;;;6217673;23;20499;-66
2022/02/19 06:34:32;;;;;;;4.88;1.40;;;3.90;99.90;;;;;;6218089;23;20206;-66
2022/02/19 06:36:57;;;;;;;4.35;0.95;;;3.80;99.90;;;;;;6217691;23;20168;-66
2022/02/19 06:39:23;;;;;;;8.98;1.60;;;3.80;99.90;;;;;;6217621;23;20141;-66
2022/02/19 06:41:48;;;;;;;19.42;1.55;;;3.80;99.90;;;;;;6217478;23;20167;-66
2022/02/19 06:44:14;;;;;;;5.68;0.95;;;3.80;99.90;;;;;;6217621;23;20146;-66
2022/02/19 06:46:39;;;;;;;3.85;1.50;;;3.90;99.90;;;;;;6217742;23;20149;-64
2022/02/19 06:49:05;;;;;;;6.90;1.33;;;3.90;99.90;;;;;;6217537;23;20564;-66
2022/02/19 06:51:30;;;;;;;5.95;1.50;;;4.00;99.90;;;;;;6217683;23;20156;-64
2022/02/19 06:53:56;;;;;;;4.85;0.90;;;4.00;99.90;;;;;;6218458;23;20149;-66
2022/02/19 06:56:26;;;;;;;6.35;0.88;;;4.10;99.90;;;;;;6218442;23;20180;-66
2022/02/19 06:58:52;;;;;;;3.95;0.93;;;4.10;99.90;;;;;;6218426;23;20141;-66
2022/02/19 07:01:18;;;;;;;5.57;1.02;;;4.20;99.90;;;;;;6218265;23;20448;-65
2022/02/19 07:03:44;;;;;;;3.80;0.80;;;4.20;99.90;;;;;;6218942;23;20141;-66
2022/02/19 07:06:09;;;;;;;7.75;1.00;;;4.20;99.90;;;;;;6219343;23;20628;-65
2022/02/19 07:08:35;;;;;;;2.55;0.90;;;4.30;99.90;;;;;;6218658;23;20176;-65
2022/02/19 07:11:00;;;;;;;7.28;1.30;;;4.30;99.90;;;;;;6218190;23;20572;-65
2022/02/19 07:13:26;;;;;;;2.75;0.85;;;4.30;99.90;;;;;;6220116;23;20199;-66
2022/02/19 07:15:51;;;;;;;4.28;0.80;;;4.30;99.90;;;;;;6219535;23;20179;-65
2022/02/19 07:18:17;;;;;;;3.90;1.20;;;4.30;99.90;;;;;;6219854;23;20171;-65
2022/02/19 07:20:42;;;;;;;1.88;0.70;;;4.40;99.90;;;;;;6220067;23;20175;-65
2022/02/19 07:23:08;;;;;;;11.85;2.40;;;4.30;99.90;;;;;;6220385;23;20164;-65
2022/02/19 07:25:34;;;;;;;3.45;0.90;;;4.30;99.90;;;;;;6220490;23;20561;-65
2022/02/19 07:27:59;;;;;;;5.85;1.38;;;4.30;99.90;;;;;;6220753;23;20462;-65
2022/02/19 07:30:25;;;;;;;6.82;1.23;;;4.30;99.90;;;;;;6218798;23;20409;-66
2022/02/19 07:32:53;;;;;;;5.50;1.20;;;4.40;99.90;;;;;;6217810;23;20157;-65
2022/02/19 07:35:20;;;;;;;7.55;1.20;;;4.40;99.90;;;;;;6220673;23;20151;-65
2022/02/19 07:37:46;;;;;;;8.10;1.20;;;4.50;99.90;;;;;;6219273;23;20510;-66
2022/02/19 07:40:11;;;;;;;9.10;1.23;;;4.50;99.90;;;;;;6218869;23;20168;-64
2022/02/19 07:42:37;;;;;;;4.38;1.20;;;4.60;99.90;;;;;;6218147;23;20145;-64
2022/02/19 07:45:04;;;;;;;6.78;1.10;;;4.60;99.90;;;;;;6218511;23;20172;-65
2022/02/19 07:47:31;;;;;;;4.78;1.05;;;4.60;99.90;;;;;;6219485;23;20160;-65
2022/02/19 07:58:19;;;;;;;7.60;1.05;;;4.60;99.90;;;;;;6219071;23;20147;-65
2022/02/19 08:00:50;;;;;;;4.03;1.00;;;4.60;99.90;;;;;;6218987;23;20164;-65
2022/02/19 08:03:15;;;;;;;4.38;0.88;;;4.70;99.90;;;;;;6219853;23;20133;-65
2022/02/19 08:05:42;;;;;;;4.20;0.70;;;4.70;99.90;;;;;;6219271;23;20199;-66
2022/02/19 08:08:08;;;;;;;3.28;0.80;;;4.70;99.90;;;;;;6219050;23;20137;-66
2022/02/19 08:10:33;;;;;;;6.05;1.00;;;4.70;99.90;;;;;;6220087;23;20168;-65
2022/02/19 08:12:59;;;;;;;3.58;0.85;;;4.70;99.90;;;;;;6220212;23;20140;-66
2022/02/19 08:15:25;;;;;;;3.47;0.75;;;4.70;99.90;;;;;;6219511;23;20141;-65
2022/02/19 08:17:50;;;;;;;5.43;1.10;;;4.80;99.90;;;;;;6219575;23;20169;-65
2022/02/19 08:20:16;;;;;;;6.28;1.08;;;4.80;99.90;;;;;;6219670;23;20141;-64
2022/02/19 08:22:41;;;;;;;5.82;1.17;;;4.90;99.90;;;;;;6217881;23;20151;-64
2022/02/19 08:25:07;;;;;;;4.45;0.70;;;4.90;99.90;;;;;;6218079;23;20151;-64
2022/02/19 08:27:38;;;;;;;9.00;1.40;;;5.00;99.90;;;;;;6217637;23;20168;-64
2022/02/19 08:30:04;;;;;;;6.13;1.13;;;5.00;99.90;;;;;;6218086;23;20535;-64
2022/02/19 08:32:30;;;;;;;8.43;1.50;;;5.10;99.90;;;;;;6219691;23;20176;-65
2022/02/19 08:34:57;;;;;;;5.53;1.17;;;5.20;99.90;;;;;;6219789;23;20219;-65
2022/02/19 08:37:23;;;;;;;6.45;1.50;;;5.30;99.90;;;;;;6218602;23;20168;-65
2022/02/19 08:39:48;;;;;;;5.80;1.10;;;5.30;99.90;;;;;;6217870;23;20145;-65
2022/02/19 08:42:14;;;;;;;5.35;1.33;;;5.40;99.90;;;;;;6218282;23;20259;-65
2022/02/19 08:44:39;;;;;;;10.68;1.52;;;5.40;99.90;;;;;;6218435;23;20541;-65
2022/02/19 08:47:05;;;;;;;5.80;1.73;;;5.30;99.90;;;;;;6217702;23;20155;-65
2022/02/19 08:49:32;;;;;;;4.82;0.93;;;5.30;99.90;;;;;;6218633;23;20157;-65
2022/02/19 08:51:58;;;;;;;7.57;1.33;;;5.30;99.90;;;;;;6217502;23;20141;-65
2022/02/19 08:54:23;;;;;;;6.65;1.90;;;5.30;99.90;;;;;;6216519;23;20199;-65
2022/02/19 08:56:50;;;;;;;3.85;1.20;;;5.30;99.90;;;;;;6216340;23;20165;-65
2022/02/19 08:59:16;;;;;;;7.68;1.42;;;5.30;99.90;;;;;;6216369;23;20596;-65
2022/02/19 09:01:42;;;;;;;5.65;1.25;;;5.30;99.90;;;;;;6216537;23;20191;-65
2022/02/19 09:04:09;;;;;;;6.25;1.40;;;5.30;99.90;;;;;;6217434;23;20144;-66
2022/02/19 09:06:36;;;;;;;4.35;1.25;;;5.40;99.90;;;;;;6216363;23;20596;-65
2022/02/19 09:09:06;;;;;;;5.05;1.20;;;5.50;99.90;;;;;;6216939;23;20141;-66
2022/02/19 09:11:32;;;;;;;8.77;1.90;;;5.50;99.90;;;;;;6216843;23;20450;-66
2022/02/19 09:13:58;;;;;;;4.57;1.10;;;5.60;99.90;;;;;;6220319;23;20149;-66
2022/02/19 09:16:29;;;;;;;6.20;1.23;;;5.70;99.90;;;;;;6220057;23;20169;-65
2022/02/19 09:18:58;;;;;;;5.03;1.00;;;5.70;99.90;;;;;;6219563;23;20217;-66
2022/02/19 09:21:23;;;;;;;3.78;0.85;;;5.80;99.90;;;;;;6219017;23;20153;-65
2022/02/19 09:23:49;;;;;;;3.58;0.70;;;5.80;99.90;;;;;;6218819;23;20591;-65
2022/02/19 09:26:14;;;;;;;2.55;0.70;;;5.80;99.90;;;;;;6217225;23;20153;-65
2022/02/19 09:28:40;;;;;;;1.58;0.60;;;5.80;99.90;;;;;;6219124;23;20176;-65
2022/02/19 09:31:05;;;;;;;1.42;0.60;;;5.80;99.90;;;;;;6219342;23;20588;-66
2022/02/19 09:33:31;;;;;;;2.85;0.60;;;5.70;99.90;;;;;;6218288;23;20156;-65
2022/02/19 09:35:57;;;;;;;2.78;0.85;;;5.70;99.90;;;;;;6221130;23;20176;-65
2022/02/19 09:38:23;;;;;;;3.22;0.52;;;5.70;99.90;;;;;;6217670;23;20483;-65
2022/02/19 09:40:48;;;;;;;3.22;0.70;;;5.70;99.90;;;;;;6216481;23;20137;-65
2022/02/19 09:43:16;;;;;;;2.78;0.65;;;5.70;99.90;;;;;;6217124;23;20141;-65
2022/02/19 09:45:42;;;;;;;2.28;0.90;;;5.80;99.90;;;;;;6216220;23;20178;-66
2022/02/19 09:48:10;;;;;;;4.50;1.10;;;5.70;99.90;;;;;;6215069;23;20532;-65
2022/02/19 09:50:35;;;;;;;4.82;1.38;;;5.70;99.90;;;;;;6216725;23;20145;-66
2022/02/19 09:53:04;;;;;;;2.78;0.90;;;5.70;99.90;;;;;;6215786;23;20176;-65
2022/02/19 09:55:30;;;;;;;3.72;0.82;;;5.70;99.90;;;;;;6217903;23;20573;-66
2022/02/19 09:57:55;;;;;;;3.30;1.05;;;5.80;99.90;;;;;;6218056;23;20255;-66
2022/02/19 10:00:45;;;;;;;4.15;0.80;;;5.70;99.90;;;;;;6217740;23;20160;-66
2022/02/19 10:03:17;;;;;;;3.20;0.65;;;5.70;99.90;;;;;;6217760;23;20517;-65
2022/02/19 10:05:43;;;;;;;4.93;1.08;;;5.80;99.90;;;;;;6218386;23;20437;-65
2022/02/19 10:08:09;;;;;;;2.72;0.63;;;5.80;99.90;;;;;;6217174;23;20453;-65
2022/02/19 10:10:42;;;;;;;4.28;0.80;;;5.80;99.90;;;;;;6216643;23;20410;-65
2022/02/19 10:13:08;;;;;;;5.70;0.90;;;5.90;99.90;;;;;;6216540;23;20604;-65
2022/02/19 10:15:46;;;;;;;2.50;0.88;;;5.90;99.90;;;;;;6217680;23;20164;-65
2022/02/19 10:18:25;;;;;;;5.35;0.80;;;6.00;99.90;;;;;;6217715;23;20133;-66
2022/02/19 10:20:52;;;;;;;4.00;0.82;;;6.00;99.90;;;;;;6217522;23;20129;-66
2022/02/19 10:23:18;;;;;;;4.72;1.30;;;6.10;99.90;;;;;;6217700;23;20149;-65
2022/02/19 10:25:59;;;;;;;3.58;0.80;;;6.20;99.90;;;;;;6217487;23;20665;-66
2022/02/19 10:28:24;;;;;;;2.60;0.68;;;6.30;99.90;;;;;;6218133;23;20133;-66
2022/02/19 10:30:50;;;;;;;5.13;1.45;;;6.30;99.90;;;;;;6218442;23;20157;-66
2022/02/19 10:33:26;;;;;;;5.15;1.23;;;6.30;99.90;;;;;;6218054;23;20125;-65
2022/02/19 10:35:52;;;;;;;5.60;1.60;;;6.30;99.90;;;;;;6217485;23;20460;-66
2022/02/19 10:38:18;;;;;;;5.55;1.10;;;6.30;99.90;;;;;;6218099;23;20467;-66
2022/02/19 10:40:50;;;;;;;4.03;1.00;;;6.30;99.90;;;;;;6217985;23;20160;-66
2022/02/19 10:43:17;;;;;;;3.47;1.08;;;6.40;99.90;;;;;;6218665;23;20152;-66
2022/02/19 10:45:58;;;;;;;6.78;1.20;;;6.40;99.90;;;;;;6216676;23;20169;-65
2022/02/19 10:48:34;;;;;;;3.70;1.00;;;6.40;99.90;;;;;;6217207;23;20137;-65
2022/02/19 10:51:14;;;;;;;5.00;1.20;;;6.30;99.90;;;;;;6217257;23;20133;-66
2022/02/19 10:53:43;;;;;;;4.75;1.20;;;6.40;99.90;;;;;;6217381;23;20143;-65
2022/02/19 10:56:15;;;;;;;6.13;1.42;;;6.40;99.90;;;;;;6217262;23;20276;-66
2022/02/19 10:59:04;;;;;;;4.85;1.05;;;6.50;99.90;;;;;;6215987;23;20445;-66
2022/02/19 11:01:40;;;;;;;8.05;1.35;;;6.50;99.90;;;;;;6217658;23;20129;-66
2022/02/19 11:04:07;;;;;;;6.97;1.30;;;6.50;99.90;;;;;;6217878;23;20246;-66
2022/02/19 11:06:33;;;;;;;4.43;1.23;;;6.50;99.90;;;;;;6216967;23;20152;-66
2022/02/19 11:09:01;;;;;;;7.78;1.55;;;6.50;99.90;;;;;;6217634;23;20157;-66
2022/02/19 11:11:27;;;;;;;7.97;1.25;;;6.60;99.90;;;;;;6217508;23;20145;-66
2022/02/19 11:13:52;;;;;;;7.57;1.63;;;6.60;99.90;;;;;;6215719;23;20160;-66
2022/02/19 11:16:20;;;;;;;4.35;1.25;;;6.60;99.90;;;;;;6217471;23;20233;-66
2022/02/19 11:18:45;;;;;;;3.25;0.90;;;6.60;99.90;;;;;;6218107;23;20191;-66
2022/02/19 11:21:11;;;;;;;2.67;0.90;;;6.60;99.90;;;;;;6217314;23;20141;-66
2022/02/19 11:23:39;;;;;;;5.55;0.95;;;6.60;99.90;;;;;;6216372;23;20195;-66
2022/02/19 11:26:07;;;;;;;3.55;0.90;;;6.60;99.90;;;;;;6217329;23;20215;-66
2022/02/19 11:28:34;;;;;;;6.20;1.73;;;6.60;99.90;;;;;;6215885;23;20176;-66
2022/02/19 11:31:00;;;;;;;4.07;1.08;;;6.60;99.90;;;;;;6216837;23;20196;-66
2022/02/19 11:33:29;;;;;;;6.80;1.00;;;6.50;99.90;;;;;;6217245;23;20433;-66
2022/02/19 11:35:59;;;;;;;4.07;1.05;;;6.50;99.90;;;;;;6216459;23;20240;-66
2022/02/19 11:38:27;;;;;;;5.03;1.00;;;6.50;99.90;;;;;;6217801;23;20179;-67
2022/02/19 11:41:15;;;;;;;5.20;1.00;;;6.50;99.90;;;;;;6217636;23;20145;-65
2022/02/19 11:43:47;;;;;;;6.18;1.40;;;6.40;99.90;;;;;;6217082;23;20167;-65
2022/02/19 11:46:13;;;;;;;3.33;0.93;;;6.40;99.90;;;;;;6216012;23;20171;-65
2022/02/19 11:48:40;;;;;;;4.00;0.88;;;6.40;99.90;;;;;;6216316;23;20565;-66
2022/02/19 11:51:11;;;;;;;4.53;1.13;;;6.40;99.90;;;;;;6216443;23;20445;-65
2022/02/19 11:53:36;;;;;;;3.80;1.05;;;6.50;99.90;;;;;;6216418;23;20541;-65
2022/02/19 11:56:02;;;;;;;4.35;1.02;;;6.60;99.90;;;;;;6216576;23;20169;-65
2022/02/19 11:58:28;;;;;;;3.20;0.77;;;6.70;99.90;;;;;;6216060;23;20149;-66
2022/02/19 12:00:55;;;;;;;4.78;1.02;;;6.80;99.90;;;;;;6217158;23;20144;-65
2022/02/19 12:03:28;;;;;;;2.40;0.80;;;6.90;99.90;;;;;;6217714;23;20145;-65
2022/02/19 12:06:16;;;;;;;4.53;1.23;;;7.00;99.90;;;;;;6217910;23;20129;-66
2022/02/19 12:08:53;;;;;;;2.70;0.90;;;7.10;99.90;;;;;;6217684;23;20145;-66
2022/02/19 12:11:23;;;;;;;2.83;0.70;;;7.20;99.90;;;;;;6217406;23;20165;-66
2022/02/19 12:13:57;;;;;;;1.10;0.50;;;7.20;99.90;;;;;;6215786;23;20175;-65
2022/02/19 12:16:31;;;;;;;2.92;0.60;;;7.30;99.90;;;;;;6217336;23;20173;-65
2022/02/19 12:18:58;;;;;;;4.90;0.85;;;7.30;99.90;;;;;;6216944;23;20572;-65
2022/02/19 12:21:42;;;;;;;1.67;0.70;;;7.20;99.90;;;;;;6217088;23;20183;-65
2022/02/19 12:24:12;;;;;;;1.63;0.50;;;7.10;99.90;;;;;;6220615;23;20164;-65
2022/02/19 12:27:05;;;;;;;1.13;0.60;;;6.90;99.90;;;;;;6225061;23;20145;-65
2022/02/19 12:29:41;;;;;;;1.55;0.47;;;6.60;99.90;;;;;;6217289;23;20157;-66
2022/02/19 12:32:11;;;;;;;1.27;0.40;;;6.50;99.90;;;;;;6216873;23;20179;-65
2022/02/19 12:34:45;;;;;;;1.25;0.28;;;6.30;99.90;;;;;;6216786;23;20169;-65
2022/02/19 12:37:12;;;;;;;2.08;0.30;;;6.20;99.90;;;;;;6215213;23;20176;-65
2022/02/19 12:39:52;;;;;;;1.92;0.22;;;6.00;99.90;;;;;;6216515;23;20451;-65
2022/02/19 12:42:29;;;;;;;1.92;0.40;;;5.70;99.90;;;;;;6216929;23;20189;-65
2022/02/19 12:45:03;;;;;;;3.45;0.50;;;5.70;99.90;;;;;;6217172;23;20242;-65
2022/02/19 12:47:29;;;;;;;2.35;0.40;;;5.70;99.90;;;;;;6225820;23;20163;-66
2022/02/19 12:49:54;;;;;;;2.70;0.47;;;5.70;99.90;;;;;;6222923;23;20561;-66
2022/02/19 12:52:23;;;;;;;0.75;0.32;;;5.70;99.90;;;;;;6216548;23;20588;-65
2022/02/19 12:54:49;;;;;;;1.27;0.50;;;5.60;99.90;;;;;;6216727;23;20148;-65
2022/02/19 12:57:19;;;;;;;2.13;0.45;;;5.70;99.90;;;;;;6216998;23;20658;-66
2022/02/19 12:59:45;;;;;;;4.03;0.65;;;5.70;99.90;;;;;;6217019;23;20137;-66
2022/02/19 13:02:12;;;;;;;5.28;0.75;;;5.80;99.90;;;;;;6216431;23;20148;-66
2022/02/19 13:04:39;;;;;;;1.80;0.55;;;5.70;99.90;;;;;;6216274;23;20141;-66